sensor_id;sensor_type;location;lat;lon;timestamp;pressure;altitude;pressure_sealevel;temperature;humidity
50310;BME280;36207;51.850;21.698;2023-02-03T00:01:34;100163.40;;;0.88;83.81
50310;BME280;36207;51.850;21.698;2023-02-03T00:04:00;100164.36;;;0.86;83.76
50310;BME280;36207;51.850;21.698;2023-02-03T00:06:26;100163.94;;;0.85;83.84
50310;BME280;36207;51.850;21.698;2023-02-03T00:08:57;100164.02;;;0.86;83.90
50310;BME280;36207;51.850;21.698;2023-02-03T00:11:25;100166.98;;;0.89;83.91
50310;BME280;36207;51.850;21.698;2023-02-03T00:13:51;100167.23;;;0.93;83.97
50310;BME280;36207;51.850;21.698;2023-02-03T00:16:17;100169.51;;;0.98;83.98
50310;BME280;36207;51.850;21.698;2023-02-03T00:18:43;100169.02;;;1.02;83.90
50310;BME280;36207;51.850;21.698;2023-02-03T00:21:09;100171.84;;;1.00;83.67
50310;BME280;36207;51.850;21.698;2023-02-03T00:23:34;100181.13;;;0.97;83.70
50310;BME280;36207;51.850;21.698;2023-02-03T00:26:12;100183.94;;;0.95;83.73
50310;BME280;36207;51.850;21.698;2023-02-03T00:28:39;100194.02;;;0.96;83.75
50310;BME280;36207;51.850;21.698;2023-02-03T00:31:05;100194.40;;;0.98;83.81
50310;BME280;36207;51.850;21.698;2023-02-03T00:33:30;100198.48;;;0.97;83.77
50310;BME280;36207;51.850;21.698;2023-02-03T00:36:04;100197.19;;;0.96;83.73
50310;BME280;36207;51.850;21.698;2023-02-03T00:38:30;100197.19;;;0.93;83.55
50310;BME280;36207;51.850;21.698;2023-02-03T00:40:56;100198.86;;;0.89;83.61
50310;BME280;36207;51.850;21.698;2023-02-03T00:43:21;100197.53;;;0.88;83.54
50310;BME280;36207;51.850;21.698;2023-02-03T00:45:47;100197.27;;;0.87;83.62
50310;BME280;36207;51.850;21.698;2023-02-03T00:48:13;100200.14;;;0.84;83.45
50310;BME280;36207;51.850;21.698;2023-02-03T00:50:39;100194.05;;;0.79;83.40
50310;BME280;36207;51.850;21.698;2023-02-03T00:53:05;100193.20;;;0.76;83.41
50310;BME280;36207;51.850;21.698;2023-02-03T00:55:31;100190.65;;;0.72;83.48
50310;BME280;36207;51.850;21.698;2023-02-03T00:57:57;100195.58;;;0.70;83.45
50310;BME280;36207;51.850;21.698;2023-02-03T01:00:23;100194.48;;;0.70;83.58
50310;BME280;36207;51.850;21.698;2023-02-03T01:02:49;100195.64;;;0.69;83.43
50310;BME280;36207;51.850;21.698;2023-02-03T01:05:15;100194.06;;;0.69;83.40
50310;BME280;36207;51.850;21.698;2023-02-03T01:07:41;100193.36;;;0.66;83.35
50310;BME280;36207;51.850;21.698;2023-02-03T01:10:07;100193.89;;;0.64;83.37
50310;BME280;36207;51.850;21.698;2023-02-03T01:12:34;100198.48;;;0.61;83.18
50310;BME280;36207;51.850;21.698;2023-02-03T01:14:59;100199.88;;;0.56;83.11
50310;BME280;36207;51.850;21.698;2023-02-03T01:17:25;100200.33;;;0.55;83.25
50310;BME280;36207;51.850;21.698;2023-02-03T01:19:52;100199.46;;;0.57;83.37
50310;BME280;36207;51.850;21.698;2023-02-03T01:22:18;100205.73;;;0.60;83.44
50310;BME280;36207;51.850;21.698;2023-02-03T01:24:44;100204.20;;;0.62;83.31
50310;BME280;36207;51.850;21.698;2023-02-03T01:27:10;100203.00;;;0.64;83.44
50310;BME280;36207;51.850;21.698;2023-02-03T01:29:36;100204.66;;;0.70;83.56
50310;BME280;36207;51.850;21.698;2023-02-03T01:32:02;100211.31;;;0.73;83.47
50310;BME280;36207;51.850;21.698;2023-02-03T01:34:29;100209.97;;;0.72;83.46
50310;BME280;36207;51.850;21.698;2023-02-03T01:36:55;100209.67;;;0.73;83.51
50310;BME280;36207;51.850;21.698;2023-02-03T01:39:20;100208.48;;;0.75;83.27
50310;BME280;36207;51.850;21.698;2023-02-03T01:41:47;100207.77;;;0.76;83.26
50310;BME280;36207;51.850;21.698;2023-02-03T01:46:57;100210.08;;;0.85;83.33
50310;BME280;36207;51.850;21.698;2023-02-03T01:49:27;100207.45;;;0.87;83.42
50310;BME280;36207;51.850;21.698;2023-02-03T01:51:55;100203.32;;;0.88;83.35
50310;BME280;36207;51.850;21.698;2023-02-03T01:54:26;100205.63;;;0.88;83.31
50310;BME280;36207;51.850;21.698;2023-02-03T01:56:57;100205.57;;;0.89;83.45
50310;BME280;36207;51.850;21.698;2023-02-03T01:59:24;100204.86;;;0.92;83.28
50310;BME280;36207;51.850;21.698;2023-02-03T02:01:52;100208.54;;;0.92;83.28
50310;BME280;36207;51.850;21.698;2023-02-03T02:04:19;100213.41;;;0.92;83.32
50310;BME280;36207;51.850;21.698;2023-02-03T02:06:47;100211.77;;;0.93;83.29
50310;BME280;36207;51.850;21.698;2023-02-03T02:09:13;100208.05;;;0.93;83.30
50310;BME280;36207;51.850;21.698;2023-02-03T02:11:39;100203.18;;;0.93;83.47
50310;BME280;36207;51.850;21.698;2023-02-03T02:14:05;100200.69;;;0.93;83.15
50310;BME280;36207;51.850;21.698;2023-02-03T02:16:40;100196.54;;;0.95;83.19
50310;BME280;36207;51.850;21.698;2023-02-03T02:24:58;100191.31;;;0.97;82.95
50310;BME280;36207;51.850;21.698;2023-02-03T02:32:46;100190.52;;;0.91;82.69
50310;BME280;36207;51.850;21.698;2023-02-03T02:35:34;100186.59;;;0.87;82.72
50310;BME280;36207;51.850;21.698;2023-02-03T02:38:24;100183.02;;;0.85;82.68
50310;BME280;36207;51.850;21.698;2023-02-03T02:41:19;100185.43;;;0.79;82.52
50310;BME280;36207;51.850;21.698;2023-02-03T02:46:46;100175.70;;;0.68;82.54
50310;BME280;36207;51.850;21.698;2023-02-03T02:49:26;100179.13;;;0.65;82.68
50310;BME280;36207;51.850;21.698;2023-02-03T02:51:56;100181.83;;;0.61;82.45
50310;BME280;36207;51.850;21.698;2023-02-03T02:54:26;100182.77;;;0.58;82.41
50310;BME280;36207;51.850;21.698;2023-02-03T02:56:55;100187.48;;;0.53;82.42
50310;BME280;36207;51.850;21.698;2023-02-03T02:59:23;100187.08;;;0.49;82.45
50310;BME280;36207;51.850;21.698;2023-02-03T03:01:49;100187.66;;;0.46;82.37
50310;BME280;36207;51.850;21.698;2023-02-03T03:04:20;100189.66;;;0.40;82.17
50310;BME280;36207;51.850;21.698;2023-02-03T03:09:28;100182.08;;;0.33;82.19
50310;BME280;36207;51.850;21.698;2023-02-03T03:12:15;100184.48;;;0.31;82.24
50310;BME280;36207;51.850;21.698;2023-02-03T03:14:47;100186.88;;;0.28;82.22
50310;BME280;36207;51.850;21.698;2023-02-03T03:17:22;100182.14;;;0.25;82.22
50310;BME280;36207;51.850;21.698;2023-02-03T03:19:54;100183.97;;;0.21;82.04
50310;BME280;36207;51.850;21.698;2023-02-03T03:22:27;100185.70;;;0.19;82.29
50310;BME280;36207;51.850;21.698;2023-02-03T03:25:13;100188.02;;;0.24;82.57
50310;BME280;36207;51.850;21.698;2023-02-03T03:27:48;100191.23;;;0.28;82.31
50310;BME280;36207;51.850;21.698;2023-02-03T03:30:19;100196.33;;;0.28;82.31
50310;BME280;36207;51.850;21.698;2023-02-03T03:32:48;100196.64;;;0.28;82.22
50310;BME280;36207;51.850;21.698;2023-02-03T03:35:15;100188.45;;;0.28;82.43
50310;BME280;36207;51.850;21.698;2023-02-03T03:37:57;100191.58;;;0.28;82.38
50310;BME280;36207;51.850;21.698;2023-02-03T03:40:29;100190.97;;;0.27;82.39
50310;BME280;36207;51.850;21.698;2023-02-03T03:42:59;100183.35;;;0.26;82.33
50310;BME280;36207;51.850;21.698;2023-02-03T03:48:37;100184.67;;;0.31;82.58
50310;BME280;36207;51.850;21.698;2023-02-03T03:51:15;100182.16;;;0.39;82.73
50310;BME280;36207;51.850;21.698;2023-02-03T03:53:44;100178.83;;;0.42;82.61
50310;BME280;36207;51.850;21.698;2023-02-03T03:56:18;100177.59;;;0.40;82.30
50310;BME280;36207;51.850;21.698;2023-02-03T03:58:48;100174.08;;;0.38;82.42
50310;BME280;36207;51.850;21.698;2023-02-03T04:01:15;100173.79;;;0.39;82.59
50310;BME280;36207;51.850;21.698;2023-02-03T04:03:47;100173.35;;;0.40;82.55
50310;BME280;36207;51.850;21.698;2023-02-03T04:06:15;100171.87;;;0.46;82.75
50310;BME280;36207;51.850;21.698;2023-02-03T04:08:41;100175.31;;;0.55;82.79
50310;BME280;36207;51.850;21.698;2023-02-03T04:11:07;100172.98;;;0.60;82.74
50310;BME280;36207;51.850;21.698;2023-02-03T04:13:33;100177.05;;;0.64;82.68
50310;BME280;36207;51.850;21.698;2023-02-03T04:15:59;100177.48;;;0.63;81.95
50310;BME280;36207;51.850;21.698;2023-02-03T04:18:24;100176.80;;;0.58;81.57
50310;BME280;36207;51.850;21.698;2023-02-03T04:20:50;100183.17;;;0.52;81.62
50310;BME280;36207;51.850;21.698;2023-02-03T04:23:16;100185.45;;;0.50;81.81
50310;BME280;36207;51.850;21.698;2023-02-03T04:25:42;100185.77;;;0.48;81.36
50310;BME280;36207;51.850;21.698;2023-02-03T04:28:08;100186.67;;;0.48;81.82
50310;BME280;36207;51.850;21.698;2023-02-03T04:30:34;100186.15;;;0.50;81.78
50310;BME280;36207;51.850;21.698;2023-02-03T04:33:00;100185.80;;;0.48;81.33
50310;BME280;36207;51.850;21.698;2023-02-03T04:35:26;100186.60;;;0.43;80.96
50310;BME280;36207;51.850;21.698;2023-02-03T04:37:52;100188.86;;;0.41;81.45
50310;BME280;36207;51.850;21.698;2023-02-03T04:40:18;100192.84;;;0.42;81.56
50310;BME280;36207;51.850;21.698;2023-02-03T04:42:44;100192.64;;;0.42;81.38
50310;BME280;36207;51.850;21.698;2023-02-03T04:45:11;100190.20;;;0.42;81.37
50310;BME280;36207;51.850;21.698;2023-02-03T04:47:37;100190.98;;;0.41;81.38
50310;BME280;36207;51.850;21.698;2023-02-03T04:50:04;100191.47;;;0.39;81.14
50310;BME280;36207;51.850;21.698;2023-02-03T04:52:30;100193.27;;;0.36;81.03
50310;BME280;36207;51.850;21.698;2023-02-03T04:54:56;100193.68;;;0.33;80.80
50310;BME280;36207;51.850;21.698;2023-02-03T04:57:22;100201.56;;;0.30;80.74
50310;BME280;36207;51.850;21.698;2023-02-03T04:59:48;100199.83;;;0.30;81.17
50310;BME280;36207;51.850;21.698;2023-02-03T05:02:15;100199.09;;;0.30;80.85
50310;BME280;36207;51.850;21.698;2023-02-03T05:04:41;100197.16;;;0.28;80.94
50310;BME280;36207;51.850;21.698;2023-02-03T05:07:08;100199.60;;;0.29;81.10
50310;BME280;36207;51.850;21.698;2023-02-03T05:09:34;100197.87;;;0.28;81.10
50310;BME280;36207;51.850;21.698;2023-02-03T05:12:00;100195.55;;;0.29;81.06
50310;BME280;36207;51.850;21.698;2023-02-03T05:14:26;100196.79;;;0.29;80.80
50310;BME280;36207;51.850;21.698;2023-02-03T05:16:52;100195.02;;;0.29;80.80
50310;BME280;36207;51.850;21.698;2023-02-03T05:19:18;100199.80;;;0.28;80.61
50310;BME280;36207;51.850;21.698;2023-02-03T05:21:44;100195.20;;;0.26;80.69
50310;BME280;36207;51.850;21.698;2023-02-03T05:24:10;100192.56;;;0.26;80.82
50310;BME280;36207;51.850;21.698;2023-02-03T05:26:36;100187.15;;;0.26;80.87
50310;BME280;36207;51.850;21.698;2023-02-03T05:29:02;100188.91;;;0.23;80.67
50310;BME280;36207;51.850;21.698;2023-02-03T05:31:28;100188.45;;;0.20;80.48
50310;BME280;36207;51.850;21.698;2023-02-03T05:33:54;100188.13;;;0.20;80.68
50310;BME280;36207;51.850;21.698;2023-02-03T05:36:20;100188.38;;;0.21;80.82
50310;BME280;36207;51.850;21.698;2023-02-03T05:38:46;100182.30;;;0.20;80.43
50310;BME280;36207;51.850;21.698;2023-02-03T05:41:12;100182.40;;;0.16;80.32
50310;BME280;36207;51.850;21.698;2023-02-03T05:43:56;100175.95;;;0.11;80.31
50310;BME280;36207;51.850;21.698;2023-02-03T05:46:23;100174.33;;;0.07;80.24
50310;BME280;36207;51.850;21.698;2023-02-03T05:48:49;100173.99;;;0.04;80.35
50310;BME280;36207;51.850;21.698;2023-02-03T05:51:15;100174.46;;;0.03;80.25
50310;BME280;36207;51.850;21.698;2023-02-03T05:53:40;100172.73;;;0.02;80.18
50310;BME280;36207;51.850;21.698;2023-02-03T05:56:06;100177.20;;;0.01;80.35
50310;BME280;36207;51.850;21.698;2023-02-03T05:58:32;100179.33;;;0.01;80.45
50310;BME280;36207;51.850;21.698;2023-02-03T06:00:58;100177.95;;;0.01;80.65
50310;BME280;36207;51.850;21.698;2023-02-03T06:03:24;100182.84;;;-0.02;80.36
50310;BME280;36207;51.850;21.698;2023-02-03T06:05:50;100181.98;;;-0.05;80.55
50310;BME280;36207;51.850;21.698;2023-02-03T06:08:16;100182.60;;;-0.07;80.44
50310;BME280;36207;51.850;21.698;2023-02-03T06:10:42;100186.45;;;-0.06;80.35
50310;BME280;36207;51.850;21.698;2023-02-03T06:13:13;100182.03;;;-0.06;80.41
50310;BME280;36207;51.850;21.698;2023-02-03T06:15:39;100182.70;;;-0.06;80.46
50310;BME280;36207;51.850;21.698;2023-02-03T06:18:06;100176.88;;;-0.05;80.57
50310;BME280;36207;51.850;21.698;2023-02-03T06:20:33;100176.27;;;-0.04;80.61
50310;BME280;36207;51.850;21.698;2023-02-03T06:22:59;100178.54;;;-0.06;80.34
50310;BME280;36207;51.850;21.698;2023-02-03T06:25:25;100176.10;;;-0.09;80.48
50310;BME280;36207;51.850;21.698;2023-02-03T06:27:52;100175.83;;;-0.07;80.56
50310;BME280;36207;51.850;21.698;2023-02-03T06:30:18;100173.44;;;-0.06;80.66
50310;BME280;36207;51.850;21.698;2023-02-03T06:32:46;100168.04;;;-0.01;80.78
50310;BME280;36207;51.850;21.698;2023-02-03T06:35:12;100160.41;;;0.03;80.94
50310;BME280;36207;51.850;21.698;2023-02-03T06:37:38;100154.48;;;0.06;80.95
50310;BME280;36207;51.850;21.698;2023-02-03T06:40:05;100151.42;;;0.07;80.91
50310;BME280;36207;51.850;21.698;2023-02-03T06:42:31;100149.05;;;0.08;80.98
50310;BME280;36207;51.850;21.698;2023-02-03T06:44:57;100144.64;;;0.08;81.00
50310;BME280;36207;51.850;21.698;2023-02-03T06:47:23;100141.32;;;0.11;81.08
50310;BME280;36207;51.850;21.698;2023-02-03T06:49:49;100143.23;;;0.18;81.33
50310;BME280;36207;51.850;21.698;2023-02-03T06:52:17;100142.29;;;0.39;81.62
50310;BME280;36207;51.850;21.698;2023-02-03T06:54:43;100134.17;;;0.61;81.48
50310;BME280;36207;51.850;21.698;2023-02-03T06:57:09;100127.11;;;0.76;81.33
50310;BME280;36207;51.850;21.698;2023-02-03T06:59:35;100124.35;;;0.90;81.33
50310;BME280;36207;51.850;21.698;2023-02-03T07:02:02;100118.70;;;1.09;81.53
50310;BME280;36207;51.850;21.698;2023-02-03T07:04:28;100117.13;;;1.37;81.84
50310;BME280;36207;51.850;21.698;2023-02-03T07:06:56;100113.26;;;1.68;82.06
50310;BME280;36207;51.850;21.698;2023-02-03T07:09:22;100111.61;;;1.94;81.63
50310;BME280;36207;51.850;21.698;2023-02-03T07:11:48;100107.03;;;2.00;81.11
50310;BME280;36207;51.850;21.698;2023-02-03T07:14:14;100105.70;;;2.07;80.86
50310;BME280;36207;51.850;21.698;2023-02-03T07:16:40;100107.23;;;2.09;80.38
50310;BME280;36207;51.850;21.698;2023-02-03T07:19:06;100101.34;;;2.06;80.24
50310;BME280;36207;51.850;21.698;2023-02-03T07:21:32;100104.29;;;2.05;80.26
50310;BME280;36207;51.850;21.698;2023-02-03T07:23:58;100100.59;;;2.02;80.17
50310;BME280;36207;51.850;21.698;2023-02-03T07:26:24;100101.91;;;2.06;80.29
50310;BME280;36207;51.850;21.698;2023-02-03T07:28:51;100103.45;;;2.12;80.41
50310;BME280;36207;51.850;21.698;2023-02-03T07:31:17;100100.81;;;2.28;80.45
50310;BME280;36207;51.850;21.698;2023-02-03T07:33:43;100097.09;;;2.52;80.59
50310;BME280;36207;51.850;21.698;2023-02-03T07:36:10;100090.56;;;2.69;79.61
50310;BME280;36207;51.850;21.698;2023-02-03T07:38:36;100088.23;;;2.91;79.32
50310;BME280;36207;51.850;21.698;2023-02-03T07:41:06;100083.53;;;3.16;79.56
50310;BME280;36207;51.850;21.698;2023-02-03T07:43:32;100084.14;;;3.44;79.89
50310;BME280;36207;51.850;21.698;2023-02-03T07:45:58;100083.24;;;3.69;79.42
50310;BME280;36207;51.850;21.698;2023-02-03T07:48:24;100077.04;;;3.83;78.50
50310;BME280;36207;51.850;21.698;2023-02-03T07:50:50;100070.45;;;3.94;77.12
50310;BME280;36207;51.850;21.698;2023-02-03T07:53:17;100064.55;;;4.17;78.74
50310;BME280;36207;51.850;21.698;2023-02-03T07:55:46;100058.91;;;4.36;74.16
50310;BME280;36207;51.850;21.698;2023-02-03T07:58:12;100048.08;;;4.66;76.68
50310;BME280;36207;51.850;21.698;2023-02-03T08:00:39;100042.75;;;5.13;78.85
50310;BME280;36207;51.850;21.698;2023-02-03T08:03:05;100038.81;;;5.49;78.20
50310;BME280;36207;51.850;21.698;2023-02-03T08:05:31;100033.42;;;5.57;75.92
50310;BME280;36207;51.850;21.698;2023-02-03T08:07:57;100031.30;;;5.57;76.87
50310;BME280;36207;51.850;21.698;2023-02-03T08:10:24;100026.66;;;5.60;76.89
50310;BME280;36207;51.850;21.698;2023-02-03T08:12:54;100021.77;;;5.68;76.88
50310;BME280;36207;51.850;21.698;2023-02-03T08:15:21;100016.52;;;5.79;76.16
50310;BME280;36207;51.850;21.698;2023-02-03T08:17:48;100011.31;;;5.89;75.53
50310;BME280;36207;51.850;21.698;2023-02-03T08:20:14;100011.39;;;6.07;76.27
50310;BME280;36207;51.850;21.698;2023-02-03T08:22:41;100015.96;;;6.23;75.30
50310;BME280;36207;51.850;21.698;2023-02-03T08:25:08;100014.91;;;6.28;75.22
50310;BME280;36207;51.850;21.698;2023-02-03T08:27:34;100013.59;;;6.29;74.30
50310;BME280;36207;51.850;21.698;2023-02-03T08:30:00;100007.34;;;6.22;73.17
50310;BME280;36207;51.850;21.698;2023-02-03T08:32:26;100007.52;;;6.21;73.62
50310;BME280;36207;51.850;21.698;2023-02-03T08:34:52;99998.41;;;6.22;73.67
50310;BME280;36207;51.850;21.698;2023-02-03T08:37:21;99992.90;;;6.17;74.33
50310;BME280;36207;51.850;21.698;2023-02-03T08:39:49;99992.76;;;6.16;73.96
50310;BME280;36207;51.850;21.698;2023-02-03T08:42:15;99992.42;;;6.19;72.34
50310;BME280;36207;51.850;21.698;2023-02-03T08:44:41;99993.03;;;6.28;71.43
50310;BME280;36207;51.850;21.698;2023-02-03T08:47:09;99993.45;;;6.31;72.16
50310;BME280;36207;51.850;21.698;2023-02-03T08:49:36;99995.67;;;6.26;70.94
50310;BME280;36207;51.850;21.698;2023-02-03T08:52:05;99994.89;;;6.32;71.56
50310;BME280;36207;51.850;21.698;2023-02-03T08:54:32;99987.92;;;6.38;71.01
50310;BME280;36207;51.850;21.698;2023-02-03T08:56:58;99982.99;;;6.40;70.62
50310;BME280;36207;51.850;21.698;2023-02-03T08:59:24;99979.41;;;6.39;69.20
50310;BME280;36207;51.850;21.698;2023-02-03T09:01:51;99974.94;;;6.21;70.54
50310;BME280;36207;51.850;21.698;2023-02-03T09:04:18;99975.89;;;6.08;69.16
50310;BME280;36207;51.850;21.698;2023-02-03T09:06:50;99974.64;;;6.03;69.54
50310;BME280;36207;51.850;21.698;2023-02-03T09:09:16;99973.34;;;6.05;69.62
50310;BME280;36207;51.850;21.698;2023-02-03T09:11:42;99971.52;;;6.06;69.36
50310;BME280;36207;51.850;21.698;2023-02-03T09:14:09;99971.02;;;5.94;69.18
50310;BME280;36207;51.850;21.698;2023-02-03T09:16:35;99961.20;;;5.79;69.83
50310;BME280;36207;51.850;21.698;2023-02-03T09:19:01;99949.39;;;5.63;68.11
50310;BME280;36207;51.850;21.698;2023-02-03T09:21:35;99944.36;;;5.41;68.75
50310;BME280;36207;51.850;21.698;2023-02-03T09:24:02;99940.55;;;5.26;69.27
50310;BME280;36207;51.850;21.698;2023-02-03T09:26:28;99930.15;;;5.15;68.23
50310;BME280;36207;51.850;21.698;2023-02-03T09:28:54;99920.92;;;5.02;67.35
50310;BME280;36207;51.850;21.698;2023-02-03T09:31:20;99912.47;;;5.01;68.95
50310;BME280;36207;51.850;21.698;2023-02-03T09:33:46;99906.20;;;5.03;68.73
50310;BME280;36207;51.850;21.698;2023-02-03T09:36:12;99897.73;;;4.85;66.20
50310;BME280;36207;51.850;21.698;2023-02-03T09:38:42;99889.91;;;4.70;67.34
50310;BME280;36207;51.850;21.698;2023-02-03T09:41:21;99891.95;;;4.63;67.26
50310;BME280;36207;51.850;21.698;2023-02-03T09:46:41;99884.92;;;4.56;66.55
50310;BME280;36207;51.850;21.698;2023-02-03T09:52:10;99878.79;;;4.52;66.54
50310;BME280;36207;51.850;21.698;2023-02-03T09:54:46;99876.54;;;4.53;65.25
50310;BME280;36207;51.850;21.698;2023-02-03T09:57:29;99872.92;;;4.46;66.84
50310;BME280;36207;51.850;21.698;2023-02-03T09:59:57;99872.51;;;4.41;66.05
50310;BME280;36207;51.850;21.698;2023-02-03T10:05:51;99869.73;;;4.11;63.02
50310;BME280;36207;51.850;21.698;2023-02-03T10:08:34;99861.39;;;3.82;62.20
50310;BME280;36207;51.850;21.698;2023-02-03T10:14:03;99850.61;;;3.42;65.14
50310;BME280;36207;51.850;21.698;2023-02-03T10:16:37;99843.73;;;3.40;65.08
50310;BME280;36207;51.850;21.698;2023-02-03T10:19:12;99836.16;;;3.32;63.54
50310;BME280;36207;51.850;21.698;2023-02-03T10:21:43;99831.60;;;3.12;63.96
50310;BME280;36207;51.850;21.698;2023-02-03T10:24:16;99823.02;;;2.88;62.50
50310;BME280;36207;51.850;21.698;2023-02-03T10:26:43;99816.77;;;2.65;62.93
50310;BME280;36207;51.850;21.698;2023-02-03T10:29:23;99809.02;;;2.57;64.16
50310;BME280;36207;51.850;21.698;2023-02-03T10:31:54;99797.53;;;2.59;64.81
50310;BME280;36207;51.850;21.698;2023-02-03T10:34:23;99788.65;;;2.59;63.33
50310;BME280;36207;51.850;21.698;2023-02-03T10:36:58;99777.42;;;2.58;63.65
50310;BME280;36207;51.850;21.698;2023-02-03T10:39:50;99769.56;;;2.64;63.87
50310;BME280;36207;51.850;21.698;2023-02-03T10:42:18;99756.39;;;2.76;64.75
50310;BME280;36207;51.850;21.698;2023-02-03T10:44:48;99753.22;;;2.84;64.53
50310;BME280;36207;51.850;21.698;2023-02-03T10:47:33;99748.46;;;2.88;64.02
50310;BME280;36207;51.850;21.698;2023-02-03T10:50:06;99746.29;;;2.90;62.99
50310;BME280;36207;51.850;21.698;2023-02-03T10:52:34;99744.40;;;2.90;64.55
50310;BME280;36207;51.850;21.698;2023-02-03T10:55:05;99737.59;;;2.89;65.09
50310;BME280;36207;51.850;21.698;2023-02-03T10:57:34;99733.15;;;2.80;63.51
50310;BME280;36207;51.850;21.698;2023-02-03T11:00:26;99722.71;;;2.69;64.08
50310;BME280;36207;51.850;21.698;2023-02-03T11:03:07;99720.23;;;2.69;65.09
50310;BME280;36207;51.850;21.698;2023-02-03T11:05:33;99711.86;;;2.62;63.00
50310;BME280;36207;51.850;21.698;2023-02-03T11:08:00;99708.65;;;2.51;63.57
50310;BME280;36207;51.850;21.698;2023-02-03T11:10:34;99700.31;;;2.34;63.27
50310;BME280;36207;51.850;21.698;2023-02-03T11:13:23;99691.09;;;2.21;63.75
50310;BME280;36207;51.850;21.698;2023-02-03T11:26:40;99651.02;;;1.35;62.21
50310;BME280;36207;51.850;21.698;2023-02-03T11:29:19;99640.48;;;1.31;63.34
50310;BME280;36207;51.850;21.698;2023-02-03T11:31:49;99629.59;;;1.31;63.70
50310;BME280;36207;51.850;21.698;2023-02-03T11:34:19;99622.23;;;1.38;63.62
50310;BME280;36207;51.850;21.698;2023-02-03T11:36:49;99611.01;;;1.52;64.08
50310;BME280;36207;51.850;21.698;2023-02-03T11:39:15;99601.17;;;1.66;64.75
50310;BME280;36207;51.850;21.698;2023-02-03T11:41:42;99595.48;;;1.73;63.33
50310;BME280;36207;51.850;21.698;2023-02-03T11:44:20;99587.65;;;1.72;63.33
50310;BME280;36207;51.850;21.698;2023-02-03T11:46:49;99577.46;;;1.71;63.54
50310;BME280;36207;51.850;21.698;2023-02-03T11:54:39;99549.48;;;1.75;63.01
50310;BME280;36207;51.850;21.698;2023-02-03T11:57:20;99540.42;;;1.67;62.93
50310;BME280;36207;51.850;21.698;2023-02-03T12:00:13;99538.32;;;1.61;63.25
50310;BME280;36207;51.850;21.698;2023-02-03T12:06:11;99522.39;;;1.36;62.56
50310;BME280;36207;51.850;21.698;2023-02-03T12:20:02;99482.85;;;1.12;63.10
50310;BME280;36207;51.850;21.698;2023-02-03T12:36:31;99426.73;;;0.82;64.35
50310;BME280;36207;51.850;21.698;2023-02-03T12:41:37;99411.52;;;0.70;64.64
50310;BME280;36207;51.850;21.698;2023-02-03T12:44:16;99404.52;;;0.65;64.71
50310;BME280;36207;51.850;21.698;2023-02-03T12:49:50;99390.52;;;0.55;65.20
50310;BME280;36207;51.850;21.698;2023-02-03T12:52:31;99390.25;;;0.56;65.64
50310;BME280;36207;51.850;21.698;2023-02-03T12:57:51;99383.05;;;0.43;66.11
50310;BME280;36207;51.850;21.698;2023-02-03T13:08:28;99361.45;;;0.44;66.62
50310;BME280;36207;51.850;21.698;2023-02-03T13:14:23;99350.07;;;0.49;66.80
50310;BME280;36207;51.850;21.698;2023-02-03T13:16:57;99342.66;;;0.49;67.06
50310;BME280;36207;51.850;21.698;2023-02-03T13:19:28;99328.94;;;0.52;67.18
50310;BME280;36207;51.850;21.698;2023-02-03T13:21:56;99321.08;;;0.54;67.22
50310;BME280;36207;51.850;21.698;2023-02-03T13:24:23;99318.67;;;0.51;67.07
50310;BME280;36207;51.850;21.698;2023-02-03T13:38:14;99271.39;;;0.45;67.53
50310;BME280;36207;51.850;21.698;2023-02-03T13:43:33;99245.26;;;0.48;67.69
50310;BME280;36207;51.850;21.698;2023-02-03T13:46:01;99229.95;;;0.48;67.84
50310;BME280;36207;51.850;21.698;2023-02-03T13:48:30;99217.59;;;0.48;67.90
50310;BME280;36207;51.850;21.698;2023-02-03T13:51:19;99206.10;;;0.47;68.20
50310;BME280;36207;51.850;21.698;2023-02-03T13:53:48;99200.40;;;0.43;68.00
50310;BME280;36207;51.850;21.698;2023-02-03T13:56:26;99196.49;;;0.42;68.00
50310;BME280;36207;51.850;21.698;2023-02-03T13:59:05;99193.54;;;0.40;67.77
50310;BME280;36207;51.850;21.698;2023-02-03T14:01:36;99188.97;;;0.40;68.11
50310;BME280;36207;51.850;21.698;2023-02-03T14:04:05;99181.39;;;0.38;68.10
50310;BME280;36207;51.850;21.698;2023-02-03T14:09:02;99169.23;;;0.41;67.90
50310;BME280;36207;51.850;21.698;2023-02-03T14:19:03;99140.67;;;0.30;67.88
50310;BME280;36207;51.850;21.698;2023-02-03T14:24:22;99133.77;;;0.27;68.16
50310;BME280;36207;51.850;21.698;2023-02-03T14:26:51;99133.27;;;0.27;68.31
50310;BME280;36207;51.850;21.698;2023-02-03T14:29:35;99131.21;;;0.26;68.37
50310;BME280;36207;51.850;21.698;2023-02-03T14:32:04;99129.08;;;0.22;68.59
50310;BME280;36207;51.850;21.698;2023-02-03T14:34:34;99125.62;;;0.18;68.96
50310;BME280;36207;51.850;21.698;2023-02-03T14:45:16;99113.23;;;0.06;71.50
50310;BME280;36207;51.850;21.698;2023-02-03T14:59:04;99097.25;;;-0.16;75.42
50310;BME280;36207;51.850;21.698;2023-02-03T15:06:44;99074.94;;;-0.23;74.92
50310;BME280;36207;51.850;21.698;2023-02-03T15:09:29;99071.70;;;-0.24;75.29
50310;BME280;36207;51.850;21.698;2023-02-03T15:11:56;99069.95;;;-0.26;76.20
50310;BME280;36207;51.850;21.698;2023-02-03T15:14:27;99064.05;;;-0.28;75.78
50310;BME280;36207;51.850;21.698;2023-02-03T15:17:10;99057.11;;;-0.33;77.70
50310;BME280;36207;51.850;21.698;2023-02-03T15:19:41;99052.23;;;-0.43;78.27
50310;BME280;36207;51.850;21.698;2023-02-03T15:22:27;99048.40;;;-0.48;77.41
50310;BME280;36207;51.850;21.698;2023-02-03T15:24:58;99042.73;;;-0.49;77.91
50310;BME280;36207;51.850;21.698;2023-02-03T15:27:27;99040.54;;;-0.48;78.05
50310;BME280;36207;51.850;21.698;2023-02-03T15:29:54;99036.91;;;-0.49;78.99
50310;BME280;36207;51.850;21.698;2023-02-03T15:32:39;99035.64;;;-0.50;78.93
50310;BME280;36207;51.850;21.698;2023-02-03T15:35:13;99030.69;;;-0.51;79.43